sensor_id;sensor_type;location;lat;lon;timestamp;P1;durP1;ratioP1;P2;durP2;ratioP2
48765;SDS011;65794;51.836;5.002;2024-01-30T00:00:12;26.75;;;12.32;;
48765;SDS011;65794;51.836;5.002;2024-01-30T00:02:38;26.42;;;12.60;;
48765;SDS011;65794;51.836;5.002;2024-01-30T00:05:05;30.58;;;13.13;;
48765;SDS011;65794;51.836;5.002;2024-01-30T00:07:32;25.60;;;12.68;;
48765;SDS011;65794;51.836;5.002;2024-01-30T00:10:00;29.25;;;12.82;;
48765;SDS011;65794;51.836;5.002;2024-01-30T00:12:27;26.65;;;12.30;;
48765;SDS011;65794;51.836;5.002;2024-01-30T00:14:53;25.90;;;12.23;;
48765;SDS011;65794;51.836;5.002;2024-01-30T00:17:21;24.50;;;11.95;;
48765;SDS011;65794;51.836;5.002;2024-01-30T00:19:47;29.73;;;12.13;;
48765;SDS011;65794;51.836;5.002;2024-01-30T00:22:14;26.08;;;11.90;;
48765;SDS011;65794;51.836;5.002;2024-01-30T00:24:41;23.88;;;11.52;;
48765;SDS011;65794;51.836;5.002;2024-01-30T00:27:08;28.58;;;12.30;;
48765;SDS011;65794;51.836;5.002;2024-01-30T00:29:34;26.25;;;11.40;;
48765;SDS011;65794;51.836;5.002;2024-01-30T00:32:01;24.23;;;11.30;;
48765;SDS011;65794;51.836;5.002;2024-01-30T00:34:28;31.77;;;11.38;;
48765;SDS011;65794;51.836;5.002;2024-01-30T00:36:54;25.02;;;11.07;;
48765;SDS011;65794;51.836;5.002;2024-01-30T00:39:21;23.20;;;10.90;;
48765;SDS011;65794;51.836;5.002;2024-01-30T00:41:48;22.92;;;11.18;;
48765;SDS011;65794;51.836;5.002;2024-01-30T00:44:14;26.35;;;10.93;;
48765;SDS011;65794;51.836;5.002;2024-01-30T00:46:41;24.60;;;11.70;;
48765;SDS011;65794;51.836;5.002;2024-01-30T00:49:08;24.95;;;10.48;;
48765;SDS011;65794;51.836;5.002;2024-01-30T00:51:35;23.00;;;10.65;;
48765;SDS011;65794;51.836;5.002;2024-01-30T00:54:01;25.38;;;11.55;;
48765;SDS011;65794;51.836;5.002;2024-01-30T00:56:29;21.27;;;10.75;;
48765;SDS011;65794;51.836;5.002;2024-01-30T00:58:55;32.30;;;10.95;;
48765;SDS011;65794;51.836;5.002;2024-01-30T01:01:22;23.73;;;11.20;;
48765;SDS011;65794;51.836;5.002;2024-01-30T01:03:49;24.48;;;10.55;;
48765;SDS011;65794;51.836;5.002;2024-01-30T01:06:15;20.23;;;10.38;;
48765;SDS011;65794;51.836;5.002;2024-01-30T01:08:42;20.45;;;10.23;;
48765;SDS011;65794;51.836;5.002;2024-01-30T01:11:09;25.02;;;10.40;;
48765;SDS011;65794;51.836;5.002;2024-01-30T01:13:36;20.92;;;10.10;;
48765;SDS011;65794;51.836;5.002;2024-01-30T01:16:02;22.65;;;10.45;;
48765;SDS011;65794;51.836;5.002;2024-01-30T01:18:30;23.05;;;9.90;;
48765;SDS011;65794;51.836;5.002;2024-01-30T01:20:57;22.00;;;10.55;;
48765;SDS011;65794;51.836;5.002;2024-01-30T01:23:23;23.42;;;10.23;;
48765;SDS011;65794;51.836;5.002;2024-01-30T01:25:50;22.30;;;10.15;;
48765;SDS011;65794;51.836;5.002;2024-01-30T01:28:16;24.17;;;10.05;;
48765;SDS011;65794;51.836;5.002;2024-01-30T01:30:43;21.08;;;10.40;;
48765;SDS011;65794;51.836;5.002;2024-01-30T01:33:10;22.70;;;9.93;;
48765;SDS011;65794;51.836;5.002;2024-01-30T01:35:37;20.33;;;9.40;;
48765;SDS011;65794;51.836;5.002;2024-01-30T01:38:03;21.58;;;9.38;;
48765;SDS011;65794;51.836;5.002;2024-01-30T01:40:30;24.48;;;9.43;;
48765;SDS011;65794;51.836;5.002;2024-01-30T01:42:57;22.48;;;9.25;;
48765;SDS011;65794;51.836;5.002;2024-01-30T01:45:24;20.27;;;9.73;;
48765;SDS011;65794;51.836;5.002;2024-01-30T01:47:51;22.75;;;9.68;;
48765;SDS011;65794;51.836;5.002;2024-01-30T01:50:18;19.25;;;9.10;;
48765;SDS011;65794;51.836;5.002;2024-01-30T01:52:48;18.30;;;9.20;;
48765;SDS011;65794;51.836;5.002;2024-01-30T01:55:15;20.90;;;8.93;;
48765;SDS011;65794;51.836;5.002;2024-01-30T01:57:42;20.17;;;9.48;;
48765;SDS011;65794;51.836;5.002;2024-01-30T02:00:09;20.75;;;9.07;;
48765;SDS011;65794;51.836;5.002;2024-01-30T02:02:37;21.58;;;9.43;;
48765;SDS011;65794;51.836;5.002;2024-01-30T02:05:05;20.70;;;9.32;;
48765;SDS011;65794;51.836;5.002;2024-01-30T02:07:32;21.27;;;9.60;;
48765;SDS011;65794;51.836;5.002;2024-01-30T02:09:58;22.40;;;9.65;;
48765;SDS011;65794;51.836;5.002;2024-01-30T02:12:25;22.10;;;10.05;;
48765;SDS011;65794;51.836;5.002;2024-01-30T02:14:52;20.80;;;9.75;;
48765;SDS011;65794;51.836;5.002;2024-01-30T02:17:20;20.13;;;9.50;;
48765;SDS011;65794;51.836;5.002;2024-01-30T02:19:46;22.20;;;9.93;;
48765;SDS011;65794;51.836;5.002;2024-01-30T02:22:13;21.85;;;8.95;;
48765;SDS011;65794;51.836;5.002;2024-01-30T02:24:40;23.27;;;9.63;;
48765;SDS011;65794;51.836;5.002;2024-01-30T02:27:07;18.02;;;8.88;;
48765;SDS011;65794;51.836;5.002;2024-01-30T02:29:33;18.45;;;9.10;;
48765;SDS011;65794;51.836;5.002;2024-01-30T02:32:00;17.98;;;8.80;;
48765;SDS011;65794;51.836;5.002;2024-01-30T02:34:27;20.98;;;9.05;;
48765;SDS011;65794;51.836;5.002;2024-01-30T02:36:53;21.00;;;9.13;;
48765;SDS011;65794;51.836;5.002;2024-01-30T02:39:20;20.38;;;9.55;;
48765;SDS011;65794;51.836;5.002;2024-01-30T02:41:47;23.17;;;9.40;;
48765;SDS011;65794;51.836;5.002;2024-01-30T02:44:13;20.23;;;9.70;;
48765;SDS011;65794;51.836;5.002;2024-01-30T02:46:40;19.85;;;9.40;;
48765;SDS011;65794;51.836;5.002;2024-01-30T02:49:06;19.50;;;9.27;;
48765;SDS011;65794;51.836;5.002;2024-01-30T02:51:33;19.52;;;9.30;;
48765;SDS011;65794;51.836;5.002;2024-01-30T02:54:00;22.33;;;9.65;;
48765;SDS011;65794;51.836;5.002;2024-01-30T02:56:26;18.08;;;9.48;;
48765;SDS011;65794;51.836;5.002;2024-01-30T02:58:53;23.08;;;9.65;;
48765;SDS011;65794;51.836;5.002;2024-01-30T03:01:20;24.88;;;9.88;;
48765;SDS011;65794;51.836;5.002;2024-01-30T03:03:47;21.95;;;9.35;;
48765;SDS011;65794;51.836;5.002;2024-01-30T03:06:13;22.17;;;9.40;;
48765;SDS011;65794;51.836;5.002;2024-01-30T03:08:43;18.60;;;8.48;;
48765;SDS011;65794;51.836;5.002;2024-01-30T03:11:10;23.38;;;10.23;;
48765;SDS011;65794;51.836;5.002;2024-01-30T03:13:37;18.08;;;8.82;;
48765;SDS011;65794;51.836;5.002;2024-01-30T03:16:03;22.88;;;9.95;;
48765;SDS011;65794;51.836;5.002;2024-01-30T03:18:30;22.17;;;9.45;;
48765;SDS011;65794;51.836;5.002;2024-01-30T03:20:56;20.90;;;9.90;;
48765;SDS011;65794;51.836;5.002;2024-01-30T03:23:23;23.77;;;9.88;;
48765;SDS011;65794;51.836;5.002;2024-01-30T03:25:50;21.02;;;9.15;;
48765;SDS011;65794;51.836;5.002;2024-01-30T03:28:16;17.77;;;8.98;;
48765;SDS011;65794;51.836;5.002;2024-01-30T03:30:43;17.73;;;9.00;;
48765;SDS011;65794;51.836;5.002;2024-01-30T03:33:10;18.05;;;8.27;;
48765;SDS011;65794;51.836;5.002;2024-01-30T03:35:36;18.02;;;8.70;;
48765;SDS011;65794;51.836;5.002;2024-01-30T03:38:03;17.52;;;9.05;;
48765;SDS011;65794;51.836;5.002;2024-01-30T03:40:30;21.13;;;9.50;;
48765;SDS011;65794;51.836;5.002;2024-01-30T03:42:56;21.65;;;9.85;;
48765;SDS011;65794;51.836;5.002;2024-01-30T03:45:24;18.85;;;8.60;;
48765;SDS011;65794;51.836;5.002;2024-01-30T03:47:51;17.63;;;8.60;;
48765;SDS011;65794;51.836;5.002;2024-01-30T03:50:17;17.13;;;8.73;;
48765;SDS011;65794;51.836;5.002;2024-01-30T03:52:44;16.42;;;8.93;;
48765;SDS011;65794;51.836;5.002;2024-01-30T03:55:11;23.40;;;8.98;;
48765;SDS011;65794;51.836;5.002;2024-01-30T03:57:37;18.95;;;8.88;;
48765;SDS011;65794;51.836;5.002;2024-01-30T04:00:04;20.90;;;8.82;;
48765;SDS011;65794;51.836;5.002;2024-01-30T04:02:37;21.75;;;9.13;;
48765;SDS011;65794;51.836;5.002;2024-01-30T04:05:04;19.45;;;9.35;;
48765;SDS011;65794;51.836;5.002;2024-01-30T04:07:31;20.45;;;8.73;;
48765;SDS011;65794;51.836;5.002;2024-01-30T04:09:57;23.13;;;8.95;;
48765;SDS011;65794;51.836;5.002;2024-01-30T04:12:24;20.10;;;9.65;;
48765;SDS011;65794;51.836;5.002;2024-01-30T04:14:51;18.75;;;9.25;;
48765;SDS011;65794;51.836;5.002;2024-01-30T04:17:18;17.98;;;8.98;;
48765;SDS011;65794;51.836;5.002;2024-01-30T04:19:45;27.02;;;9.98;;
48765;SDS011;65794;51.836;5.002;2024-01-30T04:22:11;22.13;;;8.57;;
48765;SDS011;65794;51.836;5.002;2024-01-30T04:24:38;19.98;;;9.30;;
48765;SDS011;65794;51.836;5.002;2024-01-30T04:27:05;22.27;;;9.48;;
48765;SDS011;65794;51.836;5.002;2024-01-30T04:29:31;19.88;;;8.75;;
48765;SDS011;65794;51.836;5.002;2024-01-30T04:31:59;18.35;;;9.20;;
48765;SDS011;65794;51.836;5.002;2024-01-30T04:34:26;19.77;;;9.02;;
48765;SDS011;65794;51.836;5.002;2024-01-30T04:36:52;17.98;;;8.70;;
48765;SDS011;65794;51.836;5.002;2024-01-30T04:39:19;18.88;;;8.65;;
48765;SDS011;65794;51.836;5.002;2024-01-30T04:41:45;29.50;;;9.70;;
48765;SDS011;65794;51.836;5.002;2024-01-30T04:44:12;21.08;;;9.20;;
48765;SDS011;65794;51.836;5.002;2024-01-30T04:46:39;19.90;;;8.60;;
48765;SDS011;65794;51.836;5.002;2024-01-30T04:49:05;22.55;;;9.32;;
48765;SDS011;65794;51.836;5.002;2024-01-30T04:51:34;19.60;;;8.95;;
48765;SDS011;65794;51.836;5.002;2024-01-30T04:54:00;19.73;;;9.02;;
48765;SDS011;65794;51.836;5.002;2024-01-30T04:56:27;18.98;;;8.80;;
48765;SDS011;65794;51.836;5.002;2024-01-30T04:58:54;18.92;;;8.57;;
48765;SDS011;65794;51.836;5.002;2024-01-30T05:01:20;16.95;;;8.70;;
48765;SDS011;65794;51.836;5.002;2024-01-30T05:03:47;18.63;;;8.23;;
48765;SDS011;65794;51.836;5.002;2024-01-30T05:06:23;20.88;;;8.93;;
48765;SDS011;65794;51.836;5.002;2024-01-30T05:08:50;20.10;;;9.63;;
48765;SDS011;65794;51.836;5.002;2024-01-30T05:11:16;17.95;;;8.68;;
48765;SDS011;65794;51.836;5.002;2024-01-30T05:13:43;22.05;;;9.00;;
48765;SDS011;65794;51.836;5.002;2024-01-30T05:16:09;17.50;;;8.35;;
48765;SDS011;65794;51.836;5.002;2024-01-30T05:18:36;20.17;;;9.05;;
48765;SDS011;65794;51.836;5.002;2024-01-30T05:21:03;19.88;;;8.82;;
48765;SDS011;65794;51.836;5.002;2024-01-30T05:23:30;18.02;;;8.50;;
48765;SDS011;65794;51.836;5.002;2024-01-30T05:25:56;16.00;;;7.63;;
48765;SDS011;65794;51.836;5.002;2024-01-30T05:28:23;18.10;;;8.20;;
48765;SDS011;65794;51.836;5.002;2024-01-30T05:30:50;19.58;;;8.32;;
48765;SDS011;65794;51.836;5.002;2024-01-30T05:33:16;24.10;;;8.75;;
48765;SDS011;65794;51.836;5.002;2024-01-30T05:35:43;22.60;;;8.18;;
48765;SDS011;65794;51.836;5.002;2024-01-30T05:38:11;18.42;;;8.50;;
48765;SDS011;65794;51.836;5.002;2024-01-30T05:40:37;19.38;;;8.45;;
48765;SDS011;65794;51.836;5.002;2024-01-30T05:43:04;17.40;;;9.07;;
48765;SDS011;65794;51.836;5.002;2024-01-30T05:45:31;18.77;;;8.45;;
48765;SDS011;65794;51.836;5.002;2024-01-30T05:47:57;18.35;;;8.65;;
48765;SDS011;65794;51.836;5.002;2024-01-30T05:50:24;14.15;;;7.80;;
48765;SDS011;65794;51.836;5.002;2024-01-30T05:52:52;21.75;;;8.55;;
48765;SDS011;65794;51.836;5.002;2024-01-30T05:55:19;23.85;;;9.45;;
48765;SDS011;65794;51.836;5.002;2024-01-30T05:57:46;19.25;;;8.93;;
48765;SDS011;65794;51.836;5.002;2024-01-30T06:00:13;18.33;;;8.32;;
48765;SDS011;65794;51.836;5.002;2024-01-30T06:02:39;16.77;;;8.00;;
48765;SDS011;65794;51.836;5.002;2024-01-30T06:05:06;18.50;;;8.70;;
48765;SDS011;65794;51.836;5.002;2024-01-30T06:07:33;15.85;;;7.78;;
48765;SDS011;65794;51.836;5.002;2024-01-30T06:10:03;18.63;;;8.50;;
48765;SDS011;65794;51.836;5.002;2024-01-30T06:12:30;19.80;;;8.10;;
48765;SDS011;65794;51.836;5.002;2024-01-30T06:14:56;16.48;;;8.35;;
48765;SDS011;65794;51.836;5.002;2024-01-30T06:17:23;18.02;;;9.00;;
48765;SDS011;65794;51.836;5.002;2024-01-30T06:19:50;17.83;;;7.97;;
48765;SDS011;65794;51.836;5.002;2024-01-30T06:22:17;17.25;;;8.30;;
48765;SDS011;65794;51.836;5.002;2024-01-30T06:24:43;18.15;;;8.45;;
48765;SDS011;65794;51.836;5.002;2024-01-30T06:27:15;20.70;;;8.80;;
48765;SDS011;65794;51.836;5.002;2024-01-30T06:29:45;18.15;;;8.55;;
48765;SDS011;65794;51.836;5.002;2024-01-30T06:32:12;17.40;;;8.10;;
48765;SDS011;65794;51.836;5.002;2024-01-30T06:34:40;18.27;;;8.30;;
48765;SDS011;65794;51.836;5.002;2024-01-30T06:37:07;19.38;;;7.63;;
48765;SDS011;65794;51.836;5.002;2024-01-30T06:39:33;17.27;;;8.38;;
48765;SDS011;65794;51.836;5.002;2024-01-30T06:42:00;18.63;;;8.20;;
48765;SDS011;65794;51.836;5.002;2024-01-30T06:44:27;17.85;;;7.93;;
48765;SDS011;65794;51.836;5.002;2024-01-30T06:46:57;23.05;;;8.65;;
48765;SDS011;65794;51.836;5.002;2024-01-30T06:49:24;17.10;;;8.18;;
48765;SDS011;65794;51.836;5.002;2024-01-30T06:51:50;17.00;;;7.82;;
48765;SDS011;65794;51.836;5.002;2024-01-30T06:54:17;20.25;;;8.55;;
48765;SDS011;65794;51.836;5.002;2024-01-30T06:56:44;16.10;;;7.90;;
48765;SDS011;65794;51.836;5.002;2024-01-30T06:59:10;19.75;;;8.55;;
48765;SDS011;65794;51.836;5.002;2024-01-30T07:01:37;17.70;;;8.95;;
48765;SDS011;65794;51.836;5.002;2024-01-30T07:04:04;16.30;;;7.88;;
48765;SDS011;65794;51.836;5.002;2024-01-30T07:06:30;18.30;;;8.25;;
48765;SDS011;65794;51.836;5.002;2024-01-30T07:08:57;21.48;;;8.32;;
48765;SDS011;65794;51.836;5.002;2024-01-30T07:11:24;15.90;;;7.68;;
48765;SDS011;65794;51.836;5.002;2024-01-30T07:13:51;17.48;;;7.80;;
48765;SDS011;65794;51.836;5.002;2024-01-30T07:16:17;20.98;;;8.38;;
48765;SDS011;65794;51.836;5.002;2024-01-30T07:18:44;19.35;;;8.18;;
48765;SDS011;65794;51.836;5.002;2024-01-30T07:21:11;17.15;;;8.18;;
48765;SDS011;65794;51.836;5.002;2024-01-30T07:23:38;16.77;;;8.35;;
48765;SDS011;65794;51.836;5.002;2024-01-30T07:26:05;19.35;;;8.40;;
48765;SDS011;65794;51.836;5.002;2024-01-30T07:28:33;20.20;;;8.00;;
48765;SDS011;65794;51.836;5.002;2024-01-30T07:31:00;16.63;;;7.65;;
48765;SDS011;65794;51.836;5.002;2024-01-30T07:33:27;16.58;;;8.05;;
48765;SDS011;65794;51.836;5.002;2024-01-30T07:35:54;17.17;;;7.78;;
48765;SDS011;65794;51.836;5.002;2024-01-30T07:38:20;17.63;;;7.53;;
48765;SDS011;65794;51.836;5.002;2024-01-30T07:40:47;22.65;;;8.38;;
48765;SDS011;65794;51.836;5.002;2024-01-30T07:43:14;16.20;;;7.70;;
48765;SDS011;65794;51.836;5.002;2024-01-30T07:45:40;19.80;;;7.13;;
48765;SDS011;65794;51.836;5.002;2024-01-30T07:48:07;18.05;;;7.65;;
48765;SDS011;65794;51.836;5.002;2024-01-30T07:50:34;17.83;;;7.65;;
48765;SDS011;65794;51.836;5.002;2024-01-30T07:53:01;17.30;;;7.40;;
48765;SDS011;65794;51.836;5.002;2024-01-30T07:55:28;19.83;;;7.93;;
48765;SDS011;65794;51.836;5.002;2024-01-30T07:57:55;19.75;;;7.60;;
48765;SDS011;65794;51.836;5.002;2024-01-30T08:00:22;18.35;;;7.43;;
48765;SDS011;65794;51.836;5.002;2024-01-30T08:02:55;16.27;;;6.82;;
48765;SDS011;65794;51.836;5.002;2024-01-30T08:05:22;17.35;;;8.05;;
48765;SDS011;65794;51.836;5.002;2024-01-30T08:07:49;20.15;;;8.30;;
48765;SDS011;65794;51.836;5.002;2024-01-30T08:10:16;18.27;;;7.35;;
48765;SDS011;65794;51.836;5.002;2024-01-30T08:12:45;17.23;;;7.43;;
48765;SDS011;65794;51.836;5.002;2024-01-30T08:15:12;19.33;;;7.80;;
48765;SDS011;65794;51.836;5.002;2024-01-30T08:17:39;19.10;;;7.43;;
48765;SDS011;65794;51.836;5.002;2024-01-30T08:20:08;20.70;;;7.50;;
48765;SDS011;65794;51.836;5.002;2024-01-30T08:22:40;21.45;;;8.25;;
48765;SDS011;65794;51.836;5.002;2024-01-30T08:25:07;16.75;;;6.30;;
48765;SDS011;65794;51.836;5.002;2024-01-30T08:27:34;24.08;;;7.90;;
48765;SDS011;65794;51.836;5.002;2024-01-30T08:30:02;23.08;;;7.65;;
48765;SDS011;65794;51.836;5.002;2024-01-30T08:32:29;17.80;;;7.75;;
48765;SDS011;65794;51.836;5.002;2024-01-30T08:34:56;19.67;;;7.55;;
48765;SDS011;65794;51.836;5.002;2024-01-30T08:37:24;15.75;;;6.55;;
48765;SDS011;65794;51.836;5.002;2024-01-30T08:39:51;16.38;;;7.20;;
48765;SDS011;65794;51.836;5.002;2024-01-30T08:42:17;21.80;;;7.68;;
48765;SDS011;65794;51.836;5.002;2024-01-30T08:44:49;20.42;;;8.13;;
48765;SDS011;65794;51.836;5.002;2024-01-30T08:47:17;16.92;;;7.35;;
48765;SDS011;65794;51.836;5.002;2024-01-30T08:49:45;18.25;;;7.78;;
48765;SDS011;65794;51.836;5.002;2024-01-30T08:52:12;20.65;;;8.02;;
48765;SDS011;65794;51.836;5.002;2024-01-30T08:54:38;19.58;;;8.18;;
48765;SDS011;65794;51.836;5.002;2024-01-30T08:57:05;19.35;;;8.20;;
48765;SDS011;65794;51.836;5.002;2024-01-30T08:59:32;25.75;;;8.88;;
48765;SDS011;65794;51.836;5.002;2024-01-30T09:01:58;19.92;;;8.82;;
48765;SDS011;65794;51.836;5.002;2024-01-30T09:04:37;22.63;;;8.80;;
48765;SDS011;65794;51.836;5.002;2024-01-30T09:07:05;16.70;;;8.27;;
48765;SDS011;65794;51.836;5.002;2024-01-30T09:09:37;25.30;;;8.55;;
48765;SDS011;65794;51.836;5.002;2024-01-30T09:12:03;21.10;;;8.40;;
48765;SDS011;65794;51.836;5.002;2024-01-30T09:14:33;17.15;;;8.02;;
48765;SDS011;65794;51.836;5.002;2024-01-30T09:17:00;16.05;;;8.15;;
48765;SDS011;65794;51.836;5.002;2024-01-30T09:19:27;21.33;;;8.95;;
48765;SDS011;65794;51.836;5.002;2024-01-30T09:21:54;23.08;;;9.18;;
48765;SDS011;65794;51.836;5.002;2024-01-30T09:24:21;19.60;;;8.50;;
48765;SDS011;65794;51.836;5.002;2024-01-30T09:26:47;19.38;;;8.20;;
48765;SDS011;65794;51.836;5.002;2024-01-30T09:29:14;21.80;;;8.68;;
48765;SDS011;65794;51.836;5.002;2024-01-30T09:31:44;18.38;;;8.02;;
48765;SDS011;65794;51.836;5.002;2024-01-30T09:34:11;15.52;;;7.32;;
48765;SDS011;65794;51.836;5.002;2024-01-30T09:36:38;17.40;;;7.60;;
48765;SDS011;65794;51.836;5.002;2024-01-30T09:39:05;21.92;;;8.73;;
48765;SDS011;65794;51.836;5.002;2024-01-30T09:41:33;20.63;;;7.30;;
48765;SDS011;65794;51.836;5.002;2024-01-30T09:44:02;19.13;;;7.90;;
48765;SDS011;65794;51.836;5.002;2024-01-30T09:46:30;16.58;;;6.70;;
48765;SDS011;65794;51.836;5.002;2024-01-30T09:48:59;19.25;;;7.60;;
48765;SDS011;65794;51.836;5.002;2024-01-30T09:51:26;20.55;;;7.85;;
48765;SDS011;65794;51.836;5.002;2024-01-30T09:53:54;17.67;;;7.68;;
48765;SDS011;65794;51.836;5.002;2024-01-30T09:56:21;17.52;;;7.32;;
48765;SDS011;65794;51.836;5.002;2024-01-30T09:58:48;16.90;;;6.53;;
48765;SDS011;65794;51.836;5.002;2024-01-30T10:01:15;20.48;;;7.28;;
48765;SDS011;65794;51.836;5.002;2024-01-30T10:03:45;15.73;;;7.68;;
48765;SDS011;65794;51.836;5.002;2024-01-30T10:06:12;12.93;;;6.82;;
48765;SDS011;65794;51.836;5.002;2024-01-30T10:08:39;17.55;;;7.00;;
48765;SDS011;65794;51.836;5.002;2024-01-30T10:11:06;14.55;;;6.30;;
48765;SDS011;65794;51.836;5.002;2024-01-30T10:13:33;14.00;;;6.03;;
48765;SDS011;65794;51.836;5.002;2024-01-30T10:16:00;15.55;;;6.05;;
48765;SDS011;65794;51.836;5.002;2024-01-30T10:18:29;20.33;;;7.22;;
48765;SDS011;65794;51.836;5.002;2024-01-30T10:20:57;14.50;;;6.63;;
48765;SDS011;65794;51.836;5.002;2024-01-30T10:23:24;15.95;;;5.60;;
48765;SDS011;65794;51.836;5.002;2024-01-30T10:25:52;21.60;;;6.10;;
48765;SDS011;65794;51.836;5.002;2024-01-30T10:28:19;11.35;;;5.43;;
48765;SDS011;65794;51.836;5.002;2024-01-30T10:30:45;12.50;;;5.10;;
48765;SDS011;65794;51.836;5.002;2024-01-30T10:33:12;13.57;;;5.13;;
48765;SDS011;65794;51.836;5.002;2024-01-30T10:35:39;19.95;;;5.32;;
48765;SDS011;65794;51.836;5.002;2024-01-30T10:38:06;10.10;;;4.47;;
48765;SDS011;65794;51.836;5.002;2024-01-30T10:40:35;17.98;;;4.78;;
48765;SDS011;65794;51.836;5.002;2024-01-30T10:43:02;13.40;;;4.65;;
48765;SDS011;65794;51.836;5.002;2024-01-30T10:45:31;11.60;;;4.28;;
48765;SDS011;65794;51.836;5.002;2024-01-30T10:47:59;9.85;;;4.05;;
48765;SDS011;65794;51.836;5.002;2024-01-30T10:50:27;9.13;;;3.67;;
48765;SDS011;65794;51.836;5.002;2024-01-30T10:52:54;9.32;;;3.10;;
48765;SDS011;65794;51.836;5.002;2024-01-30T10:55:21;8.80;;;3.72;;
48765;SDS011;65794;51.836;5.002;2024-01-30T10:57:48;12.88;;;3.40;;
48765;SDS011;65794;51.836;5.002;2024-01-30T11:00:15;6.40;;;2.28;;
48765;SDS011;65794;51.836;5.002;2024-01-30T11:02:43;10.82;;;2.35;;
48765;SDS011;65794;51.836;5.002;2024-01-30T11:05:11;5.88;;;1.90;;
48765;SDS011;65794;51.836;5.002;2024-01-30T11:07:39;9.10;;;2.15;;
48765;SDS011;65794;51.836;5.002;2024-01-30T11:10:07;6.28;;;2.15;;
48765;SDS011;65794;51.836;5.002;2024-01-30T11:12:40;6.90;;;2.13;;
48765;SDS011;65794;51.836;5.002;2024-01-30T11:15:15;13.60;;;2.10;;
48765;SDS011;65794;51.836;5.002;2024-01-30T11:20:12;5.00;;;1.65;;
48765;SDS011;65794;51.836;5.002;2024-01-30T11:22:47;4.28;;;1.42;;
48765;SDS011;65794;51.836;5.002;2024-01-30T11:25:14;4.80;;;0.90;;
48765;SDS011;65794;51.836;5.002;2024-01-30T11:28:00;5.75;;;1.02;;
48765;SDS011;65794;51.836;5.002;2024-01-30T11:30:28;5.43;;;0.70;;
48765;SDS011;65794;51.836;5.002;2024-01-30T11:35:24;8.05;;;0.95;;
48765;SDS011;65794;51.836;5.002;2024-01-30T11:37:51;2.35;;;0.40;;
48765;SDS011;65794;51.836;5.002;2024-01-30T11:40:18;5.18;;;0.57;;
48765;SDS011;65794;51.836;5.002;2024-01-30T11:42:45;4.20;;;0.75;;
48765;SDS011;65794;51.836;5.002;2024-01-30T11:45:13;2.53;;;0.40;;
48765;SDS011;65794;51.836;5.002;2024-01-30T11:47:40;4.57;;;0.50;;
48765;SDS011;65794;51.836;5.002;2024-01-30T11:50:10;4.25;;;0.55;;
48765;SDS011;65794;51.836;5.002;2024-01-30T11:52:37;2.72;;;0.50;;
48765;SDS011;65794;51.836;5.002;2024-01-30T11:55:04;4.10;;;0.63;;
48765;SDS011;65794;51.836;5.002;2024-01-30T11:57:31;2.65;;;0.50;;
48765;SDS011;65794;51.836;5.002;2024-01-30T11:59:58;3.97;;;0.52;;
48765;SDS011;65794;51.836;5.002;2024-01-30T12:02:24;2.85;;;0.40;;
48765;SDS011;65794;51.836;5.002;2024-01-30T12:04:51;3.47;;;0.77;;
48765;SDS011;65794;51.836;5.002;2024-01-30T12:07:18;5.07;;;0.90;;
48765;SDS011;65794;51.836;5.002;2024-01-30T12:09:54;3.22;;;0.50;;
48765;SDS011;65794;51.836;5.002;2024-01-30T12:12:24;3.25;;;0.68;;
48765;SDS011;65794;51.836;5.002;2024-01-30T12:14:51;3.70;;;0.73;;
48765;SDS011;65794;51.836;5.002;2024-01-30T12:17:27;6.22;;;1.33;;
48765;SDS011;65794;51.836;5.002;2024-01-30T12:20:04;9.73;;;1.60;;
48765;SDS011;65794;51.836;5.002;2024-01-30T12:22:35;6.65;;;1.55;;
48765;SDS011;65794;51.836;5.002;2024-01-30T12:25:03;6.00;;;1.42;;
48765;SDS011;65794;51.836;5.002;2024-01-30T12:27:30;10.15;;;1.50;;
48765;SDS011;65794;51.836;5.002;2024-01-30T12:29:57;12.90;;;1.50;;
48765;SDS011;65794;51.836;5.002;2024-01-30T12:32:24;10.18;;;1.42;;
48765;SDS011;65794;51.836;5.002;2024-01-30T12:34:55;9.77;;;1.10;;
48765;SDS011;65794;51.836;5.002;2024-01-30T12:37:27;11.30;;;1.23;;
48765;SDS011;65794;51.836;5.002;2024-01-30T12:39:54;8.77;;;1.30;;
48765;SDS011;65794;51.836;5.002;2024-01-30T12:42:21;7.68;;;1.52;;
48765;SDS011;65794;51.836;5.002;2024-01-30T12:44:48;7.22;;;1.15;;
48765;SDS011;65794;51.836;5.002;2024-01-30T12:47:16;6.60;;;1.23;;
48765;SDS011;65794;51.836;5.002;2024-01-30T12:49:43;6.10;;;1.17;;
48765;SDS011;65794;51.836;5.002;2024-01-30T12:52:11;11.07;;;2.00;;
48765;SDS011;65794;51.836;5.002;2024-01-30T12:54:38;8.98;;;1.35;;
48765;SDS011;65794;51.836;5.002;2024-01-30T12:57:05;5.82;;;1.00;;
48765;SDS011;65794;51.836;5.002;2024-01-30T12:59:32;3.22;;;0.93;;
48765;SDS011;65794;51.836;5.002;2024-01-30T13:01:59;5.25;;;1.00;;
48765;SDS011;65794;51.836;5.002;2024-01-30T13:04:26;5.18;;;1.45;;
48765;SDS011;65794;51.836;5.002;2024-01-30T13:06:53;5.65;;;1.33;;
48765;SDS011;65794;51.836;5.002;2024-01-30T13:09:20;10.45;;;1.50;;
48765;SDS011;65794;51.836;5.002;2024-01-30T13:11:47;7.00;;;1.20;;
48765;SDS011;65794;51.836;5.002;2024-01-30T13:14:13;6.47;;;1.02;;
48765;SDS011;65794;51.836;5.002;2024-01-30T13:16:40;6.10;;;1.35;;
48765;SDS011;65794;51.836;5.002;2024-01-30T13:19:07;1.73;;;0.60;;
48765;SDS011;65794;51.836;5.002;2024-01-30T13:21:33;4.10;;;0.52;;
48765;SDS011;65794;51.836;5.002;2024-01-30T13:24:00;3.17;;;0.95;;
48765;SDS011;65794;51.836;5.002;2024-01-30T13:26:27;3.72;;;1.00;;
48765;SDS011;65794;51.836;5.002;2024-01-30T13:28:54;8.45;;;1.05;;
48765;SDS011;65794;51.836;5.002;2024-01-30T13:31:20;5.45;;;1.23;;
48765;SDS011;65794;51.836;5.002;2024-01-30T13:33:47;5.72;;;1.05;;
48765;SDS011;65794;51.836;5.002;2024-01-30T13:36:15;5.68;;;1.60;;
48765;SDS011;65794;51.836;5.002;2024-01-30T13:38:42;8.90;;;1.98;;
48765;SDS011;65794;51.836;5.002;2024-01-30T13:41:08;9.07;;;2.58;;
48765;SDS011;65794;51.836;5.002;2024-01-30T13:43:35;6.30;;;2.75;;
48765;SDS011;65794;51.836;5.002;2024-01-30T13:46:02;6.13;;;2.55;;
48765;SDS011;65794;51.836;5.002;2024-01-30T13:48:29;10.23;;;2.78;;
48765;SDS011;65794;51.836;5.002;2024-01-30T13:50:56;10.15;;;2.45;;
48765;SDS011;65794;51.836;5.002;2024-01-30T13:53:23;5.82;;;1.95;;
48765;SDS011;65794;51.836;5.002;2024-01-30T13:55:49;5.75;;;1.83;;
48765;SDS011;65794;51.836;5.002;2024-01-30T13:58:16;7.55;;;1.98;;
48765;SDS011;65794;51.836;5.002;2024-01-30T14:00:43;5.95;;;1.38;;
48765;SDS011;65794;51.836;5.002;2024-01-30T14:03:10;7.35;;;1.77;;
48765;SDS011;65794;51.836;5.002;2024-01-30T14:05:37;6.07;;;1.33;;
48765;SDS011;65794;51.836;5.002;2024-01-30T14:08:03;6.80;;;2.03;;
48765;SDS011;65794;51.836;5.002;2024-01-30T14:10:30;4.95;;;1.27;;
48765;SDS011;65794;51.836;5.002;2024-01-30T14:12:57;6.82;;;1.45;;
48765;SDS011;65794;51.836;5.002;2024-01-30T14:15:24;6.22;;;1.58;;
48765;SDS011;65794;51.836;5.002;2024-01-30T14:17:55;8.13;;;1.30;;
48765;SDS011;65794;51.836;5.002;2024-01-30T14:20:22;6.03;;;1.65;;
48765;SDS011;65794;51.836;5.002;2024-01-30T14:22:49;5.03;;;1.20;;
48765;SDS011;65794;51.836;5.002;2024-01-30T14:25:16;6.63;;;1.10;;
48765;SDS011;65794;51.836;5.002;2024-01-30T14:27:43;7.63;;;1.15;;
48765;SDS011;65794;51.836;5.002;2024-01-30T14:30:10;4.57;;;0.88;;
48765;SDS011;65794;51.836;5.002;2024-01-30T14:32:37;5.03;;;1.00;;
48765;SDS011;65794;51.836;5.002;2024-01-30T14:35:05;5.53;;;1.10;;
48765;SDS011;65794;51.836;5.002;2024-01-30T14:37:31;5.30;;;1.35;;
48765;SDS011;65794;51.836;5.002;2024-01-30T14:39:58;8.02;;;1.08;;